Terminal Aerodrome Forecast
Issued by NWS Topeka, KS

Home | Current Version | Previous Version | Graphics & Text | Print | Product List | Glossary On
Versions: 1 2 3 4 5 6 7 8 9 10 11 12 13 14 15 16 17 18 19
000
FTUS43 KTOP 221900 AAA
TAFTOP
TAF AMD
KTOP 221904Z 2219/2318 03004KT P6SM OVC028
      TEMPO 2220/2222 SCT028 OVC040
     FM222200 36003KT P6SM SCT035
     FM230000 00000KT P6SM SKC
     FM231600 21006KT P6SM SKC=

USA.gov is the U.S. government's official web portal to all federal, state and local government web resources and services.